Metsäpalo Alkaa: 23-04-2019 19:54 Päättyy: 24-04-2019 19:00 Varoitus: Metsäpalo Taso: Keltainen info button
suomi:
Ruohikkopalovaara: Ruohikkopalojen vaara on suuri.

svenska:
Risk för gräsbrand: Faran för gräsbränder är stor.

english:
Grass fire warning: The risk for grass fires is high. 


Webkamera Lisätietoa Webcam


Yksityisiä sääasemia lähellä:

Sääasema Juupajoki

Sääasema Orivesi

Sääasema Muurame

Sääasema Jyväskylä

Sääasema Vihtavuori


Löydät sääaseman tiedot myös:

Finland Weather Exchange

European Weather Network

Weather Underground

AWEKAS



Säätiedot lähimmiltä METAR asemilta

   
EFHA - Halli (Fin-Afb), Finland
Etäisyys asemalta: Kaakko 25 km
Päivitetty: 23.04.2019 21:20
Selkeää  
Selkeää  
   Tuuli: Länsilounas 1.5 m/s
Tuuli: Länsilounas 1.5 m/s
Lämpötila: 14°C
Kastepiste: 2°C
Kosteus: 44%
Ilmanpaine: 1025 hPa
Näkyvyys: Enemmän kuin 10 km
Pilvitiedot: Selkeää
EFHA 231820Z AUTO 24003KT CAVOK 14/02 Q1025
EFJY - Jyvaskyla (Mil/Civ), Finland
Etäisyys asemalta: Koillinen 75 km
Päivitetty: 23.04.2019 21:20
Selkeää  
Selkeää  
   Tuuli: Länsilounas 2.1 m/s
Tuuli: Länsilounas 2.1 m/s
Lämpötila: 14°C
Kastepiste: 2°C
Kosteus: 44%
Ilmanpaine: 1025 hPa
Näkyvyys: Enemmän kuin 10 km
Pilvitiedot: Selkeää
EFJY 231820Z AUTO 25004KT 210V280 CAVOK 14/02 Q1025
EFTP - Tampere/Pirkkala, Finland
Etäisyys asemalta: Lounas 81 km
Päivitetty: 23.04.2019 21:20
Selkeää  
Selkeää  
   Tuuli: Lounas 3.1 m/s
Tuuli: Lounas 3.1 m/s
Lämpötila: 13°C
Kastepiste: 2°C
Kosteus: 47%
Ilmanpaine: 1026 hPa
Näkyvyys: Enemmän kuin 10 km
Pilvitiedot: Selkeää
EFTP 231820Z AUTO 22006KT CAVOK 13/02 Q1026
EFSI - Seinajoki-Ilmajoki, Finland
Etäisyys asemalta: Luode 114 km
Päivitetty: 23.04.2019 21:20
Selkeää  
Selkeää  
   Tuuli: Etelälounas 1.5 m/s
Tuuli: Etelälounas 1.5 m/s
Lämpötila: 13°C
Kastepiste: 3°C
Kosteus: 51%
Ilmanpaine: 1024 hPa
Näkyvyys: Enemmän kuin 10 km
Pilvitiedot: Selkeää
EFSI 231820Z AUTO 20003KT CAVOK 13/03 Q1024
EFMI - Mikkeli, Finland
Etäisyys asemalta: Itäkaakko 147 km
Päivitetty: 23.04.2019 21:20
Selkeää  
Selkeää  
   Tuuli: Länsi 1 m/s
Tuuli: Länsi 1 m/s
Lämpötila: 11°C
Kastepiste: 3°C
Kosteus: 58%
Ilmanpaine: 1025 hPa
Näkyvyys: Enemmän kuin 10 km
Pilvitiedot: Selkeää
EFMI 231820Z AUTO 26002KT CAVOK 11/03 Q1025
EFPO - Pori (Mil/Civ), Finland
Etäisyys asemalta: Länsilounas 154 km
Päivitetty: 23.04.2019 21:20
Selkeää  
Selkeää  
   Tuuli: Etelä 2.6 m/s
Tuuli: Etelä 2.6 m/s
Lämpötila: 14°C
Kastepiste: -1°C
Kosteus: 36%
Ilmanpaine: 1026 hPa
Näkyvyys: Enemmän kuin 10 km
Pilvitiedot: Selkeää
EFPO 231820Z AUTO 19005KT CAVOK 14/M01 Q1026
EFUT - Utti (Fin-Afb), Finland
Etäisyys asemalta: Kaakko 180 km
Päivitetty: 23.04.2019 21:20
Selkeää  
Selkeää  
   Tuuli: Vaihtelee 2.1 m/s
Tuuli: Vaihtelee 2.1 m/s
Lämpötila: 15°C
Kastepiste: 3°C
Kosteus: 45%
Ilmanpaine: 1026 hPa
Näkyvyys: Enemmän kuin 10 km
Pilvitiedot: Selkeää
EFUT 231820Z VRB04KT CAVOK 15/03 Q1026
EFVA - Vaasa, Finland
Etäisyys asemalta: Luode 180 km
Päivitetty: 23.04.2019 21:20
Selkeää  
Selkeää  
   Tuuli: Etelälounas 6.2 m/s
Tuuli: Etelälounas 6.2 m/s
Lämpötila: 13°C
Kastepiste: 4°C
Kosteus: 55%
Ilmanpaine: 1023 hPa
Näkyvyys: Enemmän kuin 10 km
Pilvitiedot: Selkeää
EFVA 231820Z AUTO 21012KT CAVOK 13/04 Q1023
EFHK - Helsinki/Vantaa, Finland
Etäisyys asemalta: Etelä 191 km
Päivitetty: 23.04.2019 21:20
Selkeää  
Selkeää  
   Tuuli: Länsilounas 3.1 m/s
Tuuli: Länsilounas 3.1 m/s
Lämpötila: 14°C
Kastepiste: 1°C
Kosteus: 41%
Ilmanpaine: 1027 hPa
Näkyvyys: Enemmän kuin 10 km
Pilvitiedot: Selkeää
EFHK 231820Z 24006KT CAVOK 14/01 Q1027 NOSIG

Alkuperäinen skripti  Saratoga-weather.org Sovitettu myös templatelle  Weerstation Leuven

Laitteet joita käytämme:

Sääasema
Davis VP2

Sääasemaohjelma
Cumulus

Sääaseman palvelin
HP ProBook 6460b

Palveluntarjoaja
Radicenter

Davis VP2

Cumulus

HP ProBook 6460b

Radicenter




Flag Counter Cumulus Top Weather Sites